createdAt,value
2022-08-28T00:01:08.116Z,96.88
2022-08-28T00:03:54.794Z,96.99
2022-08-28T00:06:39.957Z,97.43
2022-08-28T00:09:25.425Z,98.27
2022-08-28T00:12:12.380Z,98.85
2022-08-28T00:14:57.548Z,99.53
2022-08-28T00:17:42.580Z,99.96
2022-08-28T00:20:28.859Z,100.00
2022-08-28T00:23:14.934Z,100.00
2022-08-28T00:26:00.592Z,100.00
2022-08-28T00:28:45.556Z,100.00
2022-08-28T00:31:30.638Z,100.00
2022-08-28T00:34:15.957Z,100.00
2022-08-28T00:37:01.557Z,100.00
2022-08-28T00:39:47.834Z,100.00
2022-08-28T00:42:38.332Z,100.00
2022-08-28T00:45:25.384Z,100.00
2022-08-28T00:48:10.886Z,100.00
2022-08-28T00:51:16.117Z,100.00
2022-08-28T00:54:06.862Z,100.00
2022-08-28T00:56:55.081Z,100.00
2022-08-28T00:59:40.351Z,100.00
2022-08-28T01:02:26.539Z,100.00
2022-08-28T01:05:13.653Z,100.00
2022-08-28T01:07:59.340Z,100.00
2022-08-28T01:10:50.327Z,100.00
2022-08-28T01:13:39.666Z,100.00
2022-08-28T01:16:31.676Z,100.00
2022-08-28T01:19:28.829Z,100.00
2022-08-28T01:22:37.336Z,100.00
2022-08-28T01:25:24.669Z,100.00
2022-08-28T01:28:12.626Z,100.00
2022-08-28T01:30:58.314Z,100.00
2022-08-28T01:33:45.108Z,100.00
2022-08-28T01:36:31.184Z,100.00
2022-08-28T01:39:20.457Z,100.00
2022-08-28T01:42:06.821Z,100.00
2022-08-28T01:44:54.104Z,100.00
2022-08-28T01:47:42.352Z,100.00
2022-08-28T01:50:27.464Z,100.00
2022-08-28T01:53:16.390Z,100.00
2022-08-28T01:56:04.829Z,100.00
2022-08-28T01:58:49.959Z,100.00
2022-08-28T02:01:35.729Z,100.00
2022-08-28T02:04:21.180Z,100.00
2022-08-28T02:07:16.907Z,100.00
2022-08-28T02:10:02.811Z,100.00
2022-08-28T02:12:49.236Z,100.00
2022-08-28T02:15:36.523Z,100.00
2022-08-28T02:18:21.800Z,100.00
2022-08-28T02:21:08.129Z,100.00
2022-08-28T02:23:54.301Z,100.00
2022-08-28T02:26:39.609Z,100.00
2022-08-28T02:29:27.069Z,100.00
2022-08-28T02:32:12.451Z,100.00
2022-08-28T02:34:57.674Z,100.00
2022-08-28T02:37:44.373Z,100.00
2022-08-28T02:40:30.395Z,100.00
2022-08-28T02:43:15.534Z,100.00
2022-08-28T02:46:00.945Z,100.00
2022-08-28T02:48:46.085Z,100.00
2022-08-28T02:51:33.497Z,100.00
2022-08-28T02:54:18.654Z,100.00
2022-08-28T02:57:03.694Z,100.00
2022-08-28T02:59:48.998Z,100.00
2022-08-28T03:02:34.161Z,100.00
2022-08-28T03:05:23.318Z,100.00
2022-08-28T03:08:08.419Z,100.00
2022-08-28T03:10:53.729Z,100.00
2022-08-28T03:13:39.126Z,100.00
2022-08-28T03:16:25.379Z,100.00
2022-08-28T03:19:10.405Z,100.00
2022-08-28T03:21:55.641Z,100.00
2022-08-28T03:24:41.383Z,100.00
2022-08-28T03:27:26.559Z,100.00
2022-08-28T03:30:12.382Z,100.00
2022-08-28T03:32:57.710Z,100.00
2022-08-28T03:35:42.992Z,100.00
2022-08-28T03:38:28.211Z,100.00
2022-08-28T03:41:17.364Z,100.00
2022-08-28T03:44:02.927Z,100.00
2022-08-28T03:46:47.837Z,100.00
2022-08-28T03:49:32.907Z,100.00
2022-08-28T03:52:17.992Z,100.00
2022-08-28T03:55:04.467Z,100.00
2022-08-28T03:57:49.340Z,100.00
2022-08-28T04:00:35.360Z,100.00
2022-08-28T04:03:20.742Z,100.00
2022-08-28T04:06:06.191Z,100.00
2022-08-28T04:08:51.326Z,100.00
2022-08-28T04:11:43.858Z,100.00
2022-08-28T04:14:28.911Z,100.00
2022-08-28T04:17:14.535Z,100.00
2022-08-28T04:19:59.768Z,100.00
2022-08-28T04:22:45.252Z,100.00
2022-08-28T04:25:31.642Z,100.00
2022-08-28T04:28:17.620Z,100.00
2022-08-28T04:31:03.289Z,100.00
2022-08-28T04:33:48.285Z,100.00
2022-08-28T04:36:33.762Z,100.00
2022-08-28T04:39:19.556Z,100.00
2022-08-28T04:42:05.009Z,100.00
2022-08-28T04:44:50.421Z,100.00
2022-08-28T04:47:37.939Z,100.00
2022-08-28T04:50:22.818Z,100.00
2022-08-28T04:53:08.278Z,100.00
2022-08-28T04:55:55.217Z,100.00
2022-08-28T04:58:42.481Z,100.00
2022-08-28T05:01:27.619Z,100.00
2022-08-28T05:04:13.170Z,100.00
2022-08-28T05:06:58.243Z,100.00
2022-08-28T05:09:43.599Z,100.00
2022-08-28T05:12:28.512Z,100.00
2022-08-28T05:15:13.971Z,100.00
2022-08-28T05:17:59.497Z,100.00
2022-08-28T05:20:46.444Z,100.00
2022-08-28T05:23:31.638Z,100.00
2022-08-28T05:26:19.013Z,100.00
2022-08-28T05:29:05.574Z,100.00
2022-08-28T05:31:50.516Z,100.00
2022-08-28T05:34:35.978Z,100.00
2022-08-28T05:37:21.287Z,100.00
2022-08-28T05:40:07.265Z,100.00
2022-08-28T05:42:52.594Z,100.00
2022-08-28T05:45:37.843Z,100.00
2022-08-28T05:48:23.312Z,100.00
2022-08-28T05:51:13.442Z,100.00
2022-08-28T05:53:58.916Z,100.00
2022-08-28T05:56:46.021Z,100.00
2022-08-28T05:59:31.267Z,100.00
2022-08-28T06:02:16.653Z,100.00
2022-08-28T06:05:02.024Z,100.00
2022-08-28T06:07:46.974Z,100.00
2022-08-28T06:10:32.292Z,100.00
2022-08-28T06:13:17.637Z,100.00
2022-08-28T06:16:05.341Z,100.00
2022-08-28T06:18:53.498Z,100.00
2022-08-28T06:21:41.465Z,100.00
2022-08-28T06:24:28.152Z,100.00
2022-08-28T06:27:13.179Z,100.00
2022-08-28T06:29:58.700Z,100.00
2022-08-28T06:32:43.770Z,100.00
2022-08-28T06:35:28.761Z,100.00
2022-08-28T06:38:14.658Z,100.00
2022-08-28T06:41:00.088Z,100.00
2022-08-28T06:43:45.104Z,100.00
2022-08-28T06:46:33.145Z,100.00
2022-08-28T06:49:18.517Z,100.00
2022-08-28T06:52:03.573Z,100.00
2022-08-28T06:54:55.297Z,100.00
2022-08-28T06:57:41.217Z,100.00
2022-08-28T07:00:26.657Z,100.00
2022-08-28T07:03:12.432Z,100.00
2022-08-28T07:05:59.151Z,100.00
2022-08-28T07:08:44.595Z,100.00
2022-08-28T07:11:31.633Z,100.00
2022-08-28T07:14:17.157Z,100.00
2022-08-28T07:17:02.360Z,100.00
2022-08-28T07:19:47.509Z,100.00
2022-08-28T07:22:33.293Z,100.00
2022-08-28T07:25:18.373Z,100.00
2022-08-28T07:28:05.538Z,100.00
2022-08-28T07:31:03.457Z,100.00
2022-08-28T07:33:50.859Z,100.00
2022-08-28T07:36:40.047Z,100.00
2022-08-28T07:39:25.211Z,100.00
2022-08-28T07:42:33.926Z,100.00
2022-08-28T07:45:21.182Z,100.00
2022-08-28T07:48:11.291Z,100.00
2022-08-28T07:50:57.061Z,100.00
2022-08-28T07:53:42.265Z,100.00
2022-08-28T07:56:29.939Z,100.00
2022-08-28T07:59:17.402Z,100.00
2022-08-28T08:02:05.498Z,100.00
2022-08-28T08:04:50.694Z,100.00
2022-08-28T08:07:39.840Z,100.00
2022-08-28T08:10:27.259Z,100.00
2022-08-28T08:13:18.985Z,100.00
2022-08-28T08:16:11.881Z,99.46
2022-08-28T08:18:57.702Z,98.15
2022-08-28T08:21:45.719Z,96.74
2022-08-28T08:24:31.268Z,96.44
2022-08-28T08:27:16.530Z,95.61
2022-08-28T08:30:01.829Z,94.56
2022-08-28T08:32:47.085Z,94.44
2022-08-28T08:35:32.481Z,94.93
2022-08-28T08:38:17.569Z,96.60
2022-08-28T08:41:13.781Z,98.16
2022-08-28T08:44:17.593Z,98.21
2022-08-28T08:47:14.903Z,97.54
2022-08-28T08:50:09.355Z,97.13
2022-08-28T08:53:06.641Z,96.53
2022-08-28T08:55:54.329Z,95.01
2022-08-28T08:58:42.419Z,93.93
2022-08-28T09:01:41.592Z,92.16
2022-08-28T09:04:34.398Z,89.95
2022-08-28T09:07:25.292Z,88.54
2022-08-28T09:10:12.459Z,87.83
2022-08-28T09:13:13.909Z,86.98
2022-08-28T09:16:00.174Z,86.50
2022-08-28T09:18:45.863Z,86.29
2022-08-28T09:21:34.370Z,84.96
2022-08-28T09:24:29.734Z,83.18
2022-08-28T09:27:25.993Z,81.52
2022-08-28T09:30:11.439Z,81.15
2022-08-28T09:33:01.022Z,80.66
2022-08-28T09:35:45.990Z,79.64
2022-08-28T09:38:31.165Z,78.75
2022-08-28T09:41:35.102Z,78.79
2022-08-28T09:44:20.618Z,79.22
2022-08-28T09:47:05.658Z,79.02
2022-08-28T09:49:50.821Z,78.64
2022-08-28T09:52:36.058Z,78.78
2022-08-28T09:55:56.985Z,78.38
2022-08-28T09:58:48.705Z,76.89
2022-08-28T10:01:49.132Z,75.72
2022-08-28T10:04:43.454Z,73.92
2022-08-28T10:07:56.677Z,72.76
2022-08-28T10:10:47.962Z,69.65
2022-08-28T10:13:47.179Z,69.09
2022-08-28T10:16:51.051Z,68.13
2022-08-28T10:19:48.193Z,67.79
2022-08-28T10:22:36.372Z,67.36
2022-08-28T10:25:46.325Z,67.08
2022-08-28T10:28:50.262Z,67.00
2022-08-28T10:31:52.613Z,66.05
2022-08-28T10:34:49.830Z,65.77
2022-08-28T10:37:59.852Z,66.02
2022-08-28T10:41:17.388Z,65.01
2022-08-28T10:44:05.174Z,64.49
2022-08-28T10:46:55.563Z,64.31
2022-08-28T10:49:44.253Z,64.17
2022-08-28T10:52:45.200Z,64.77
2022-08-28T10:55:37.544Z,65.79
2022-08-28T10:58:25.998Z,65.18
2022-08-28T11:01:24.852Z,65.08
2022-08-28T11:04:25.511Z,64.52
2022-08-28T11:07:19.901Z,64.16
2022-08-28T11:10:34.879Z,63.37
2022-08-28T11:13:42.983Z,62.71
2022-08-28T11:16:28.096Z,61.88
2022-08-28T11:19:22.734Z,61.79
2022-08-28T11:22:17.729Z,61.83
2022-08-28T11:25:34.293Z,60.65
2022-08-28T11:28:24.045Z,58.97
2022-08-28T11:31:09.984Z,59.12
2022-08-28T11:34:00.117Z,58.59
2022-08-28T11:36:45.201Z,57.60
2022-08-28T11:39:30.425Z,57.14
2022-08-28T11:42:34.339Z,56.87
2022-08-28T11:45:22.146Z,55.81
2022-08-28T11:48:07.306Z,55.28
2022-08-28T11:51:03.285Z,54.75
2022-08-28T11:53:59.793Z,54.56
2022-08-28T11:57:06.249Z,53.67
2022-08-28T12:00:29.108Z,53.16
2022-08-28T12:03:24.352Z,53.40
2022-08-28T12:06:10.873Z,53.54
2022-08-28T12:08:58.984Z,53.90
2022-08-28T12:11:43.852Z,54.23
2022-08-28T12:14:28.860Z,54.71
2022-08-28T12:17:16.803Z,53.35
2022-08-28T12:20:10.219Z,53.85
2022-08-28T12:23:01.490Z,54.28
2022-08-28T12:25:47.311Z,55.05
2022-08-28T12:29:03.423Z,54.67
2022-08-28T12:32:07.041Z,53.65
2022-08-28T12:34:57.907Z,53.59
2022-08-28T12:37:52.823Z,53.86
2022-08-28T12:40:41.682Z,54.47
2022-08-28T12:43:35.783Z,54.46
2022-08-28T12:46:30.994Z,54.80
2022-08-28T12:49:37.580Z,54.82
2022-08-28T12:52:25.360Z,54.90
2022-08-28T12:55:10.781Z,54.94
2022-08-28T12:57:56.152Z,54.09
2022-08-28T13:00:56.623Z,53.64
2022-08-28T13:03:54.694Z,54.01
2022-08-28T13:06:39.805Z,53.76
2022-08-28T13:09:28.282Z,53.63
2022-08-28T13:12:55.951Z,53.57
2022-08-28T13:15:48.852Z,53.62
2022-08-28T13:18:43.054Z,53.41
2022-08-28T13:21:33.972Z,52.71
2022-08-28T13:24:42.389Z,51.93
2022-08-28T13:27:28.173Z,52.42
2022-08-28T13:30:20.053Z,51.64
2022-08-28T13:33:23.674Z,52.44
2022-08-28T13:36:24.718Z,52.56
2022-08-28T13:39:09.987Z,53.15
2022-08-28T13:41:58.434Z,52.89
2022-08-28T13:44:48.748Z,52.70
2022-08-28T13:47:33.696Z,52.40
2022-08-28T13:50:19.088Z,52.69
2022-08-28T13:53:04.261Z,53.46
2022-08-28T13:55:50.441Z,53.13
2022-08-28T13:58:35.337Z,53.02
2022-08-28T14:01:24.421Z,52.77
2022-08-28T14:04:19.593Z,52.95
2022-08-28T14:07:04.736Z,52.53
2022-08-28T14:09:55.473Z,52.67
2022-08-28T14:12:43.124Z,51.33
2022-08-28T14:15:28.319Z,50.56
2022-08-28T14:18:13.539Z,49.24
2022-08-28T14:20:58.670Z,48.58
2022-08-28T14:23:43.890Z,47.55
2022-08-28T14:26:30.253Z,48.55
2022-08-28T14:29:17.747Z,48.40
2022-08-28T14:32:04.182Z,48.21
2022-08-28T14:34:50.634Z,48.12
2022-08-28T14:37:35.937Z,48.26
2022-08-28T14:40:20.974Z,47.91
2022-08-28T14:43:07.344Z,48.97
2022-08-28T14:45:52.611Z,50.42
2022-08-28T14:48:37.778Z,50.56
2022-08-28T14:51:23.468Z,51.39
2022-08-28T14:54:11.517Z,50.97
2022-08-28T14:56:56.473Z,49.95
2022-08-28T14:59:41.653Z,49.87
2022-08-28T15:02:27.021Z,49.83
2022-08-28T15:05:12.177Z,51.06
2022-08-28T15:07:57.470Z,51.49
2022-08-28T15:10:44.491Z,51.89
2022-08-28T15:13:31.544Z,50.67
2022-08-28T15:16:20.849Z,50.77
2022-08-28T15:19:06.982Z,51.65
2022-08-28T15:21:54.974Z,51.31
2022-08-28T15:24:40.488Z,51.21
2022-08-28T15:27:25.636Z,51.52
2022-08-28T15:30:11.653Z,51.94
2022-08-28T15:32:58.026Z,52.47
2022-08-28T15:35:43.027Z,52.91
2022-08-28T15:38:28.315Z,52.54
2022-08-28T15:41:25.790Z,52.81
2022-08-28T15:44:14.961Z,52.92
2022-08-28T15:47:02.294Z,52.71
2022-08-28T15:49:54.279Z,52.46
2022-08-28T15:52:40.883Z,52.56
2022-08-28T15:55:27.794Z,52.32
2022-08-28T15:58:14.281Z,52.84
2022-08-28T16:00:59.597Z,52.62
2022-08-28T16:03:44.735Z,53.28
2022-08-28T16:06:30.042Z,53.59
2022-08-28T16:09:15.331Z,53.75
2022-08-28T16:12:00.510Z,52.98
2022-08-28T16:14:45.922Z,53.46
2022-08-28T16:17:31.230Z,53.78
2022-08-28T16:20:16.569Z,53.20
2022-08-28T16:23:02.077Z,53.06
2022-08-28T16:25:47.172Z,52.57
2022-08-28T16:28:33.307Z,52.40
2022-08-28T16:31:20.639Z,52.41
2022-08-28T16:34:06.452Z,52.50
2022-08-28T16:36:55.358Z,52.51
2022-08-28T16:39:40.372Z,52.12
2022-08-28T16:42:28.590Z,51.93
2022-08-28T16:45:16.629Z,51.96
2022-08-28T16:48:01.557Z,52.02
2022-08-28T16:50:47.029Z,52.17
2022-08-28T16:53:32.709Z,52.37
2022-08-28T16:56:17.865Z,52.82
2022-08-28T16:59:04.156Z,53.33
2022-08-28T17:01:55.426Z,53.65
2022-08-28T17:04:40.447Z,54.14
2022-08-28T17:07:26.201Z,54.48
2022-08-28T17:10:14.174Z,54.48
2022-08-28T17:12:59.553Z,55.20
2022-08-28T17:15:44.936Z,55.45
2022-08-28T17:18:30.282Z,55.71
2022-08-28T17:21:34.026Z,55.67
2022-08-28T17:24:19.597Z,55.98
2022-08-28T17:27:05.861Z,56.67
2022-08-28T17:29:51.615Z,57.49
2022-08-28T17:32:37.246Z,58.15
2022-08-28T17:35:22.801Z,58.24
2022-08-28T17:38:08.739Z,58.46
2022-08-28T17:40:54.060Z,58.65
2022-08-28T17:43:39.463Z,59.33
2022-08-28T17:46:25.677Z,60.06
2022-08-28T17:49:11.433Z,60.20
2022-08-28T17:51:56.715Z,60.66
2022-08-28T17:54:41.976Z,61.01
2022-08-28T17:57:30.479Z,61.14
2022-08-28T18:00:16.497Z,61.07
2022-08-28T18:03:01.624Z,61.10
2022-08-28T18:05:46.951Z,60.97
2022-08-28T18:08:32.226Z,61.37
2022-08-28T18:11:19.156Z,61.21
2022-08-28T18:14:04.538Z,61.37
2022-08-28T18:16:49.602Z,61.77
2022-08-28T18:19:34.771Z,62.32
2022-08-28T18:22:20.074Z,62.78
2022-08-28T18:25:06.640Z,63.01
2022-08-28T18:27:51.864Z,63.39
2022-08-28T18:30:37.097Z,63.60
2022-08-28T18:33:24.100Z,63.99
2022-08-28T18:36:11.698Z,64.26
2022-08-28T18:38:57.500Z,64.15
2022-08-28T18:41:43.866Z,64.49
2022-08-28T18:44:31.849Z,64.90
2022-08-28T18:47:17.812Z,65.04
2022-08-28T18:50:05.062Z,65.58
2022-08-28T18:52:51.890Z,65.67
2022-08-28T18:55:37.194Z,66.46
2022-08-28T18:58:23.814Z,66.65
2022-08-28T19:01:09.409Z,67.08
2022-08-28T19:03:55.410Z,67.21
2022-08-28T19:06:41.032Z,67.54
2022-08-28T19:09:32.112Z,68.02
2022-08-28T19:12:17.613Z,68.74
2022-08-28T19:15:03.446Z,69.25
2022-08-28T19:17:49.044Z,69.55
2022-08-28T19:20:34.784Z,69.58
2022-08-28T19:23:19.929Z,69.81
2022-08-28T19:26:06.676Z,70.41
2022-08-28T19:28:52.101Z,70.60
2022-08-28T19:31:37.595Z,70.98
2022-08-28T19:34:23.702Z,70.98
2022-08-28T19:37:08.861Z,71.19
2022-08-28T19:39:57.371Z,71.56
2022-08-28T19:42:42.731Z,72.40
2022-08-28T19:45:27.838Z,72.54
2022-08-28T19:48:14.182Z,72.46
2022-08-28T19:51:04.568Z,72.80
2022-08-28T19:53:57.916Z,73.28
2022-08-28T19:56:43.821Z,73.21
2022-08-28T19:59:28.993Z,73.49
2022-08-28T20:02:14.271Z,73.55
2022-08-28T20:04:59.457Z,73.92
2022-08-28T20:07:44.724Z,74.29
2022-08-28T20:10:31.552Z,74.28
2022-08-28T20:13:17.915Z,74.58
2022-08-28T20:16:05.046Z,74.80
2022-08-28T20:18:50.446Z,74.72
2022-08-28T20:21:38.388Z,74.79
2022-08-28T20:24:24.902Z,75.06
2022-08-28T20:27:09.990Z,75.46
2022-08-28T20:29:55.111Z,75.51
2022-08-28T20:32:41.682Z,75.83
2022-08-28T20:35:27.561Z,76.08
2022-08-28T20:38:13.690Z,76.52
2022-08-28T20:41:24.810Z,76.94
2022-08-28T20:44:12.826Z,76.77
2022-08-28T20:46:58.416Z,77.15
2022-08-28T20:49:43.631Z,77.17
2022-08-28T20:52:28.670Z,77.29
2022-08-28T20:55:14.193Z,77.91
2022-08-28T20:57:59.119Z,78.14
2022-08-28T21:00:44.709Z,77.98
2022-08-28T21:03:30.104Z,78.22
2022-08-28T21:06:15.302Z,78.45
2022-08-28T21:09:00.614Z,78.79
2022-08-28T21:11:46.200Z,79.20
2022-08-28T21:14:31.307Z,79.57
2022-08-28T21:17:16.888Z,79.64
2022-08-28T21:20:15.271Z,80.35
2022-08-28T21:23:00.391Z,80.63
2022-08-28T21:25:45.513Z,81.02
2022-08-28T21:28:30.485Z,81.07
2022-08-28T21:31:15.740Z,81.40
2022-08-28T21:34:00.894Z,81.39
2022-08-28T21:36:50.379Z,81.82
2022-08-28T21:39:36.073Z,82.58
2022-08-28T21:42:20.977Z,82.72
2022-08-28T21:45:11.858Z,83.08
2022-08-28T21:47:57.804Z,83.52
2022-08-28T21:50:43.106Z,83.94
2022-08-28T21:53:28.506Z,83.89
2022-08-28T21:56:26.023Z,83.75
2022-08-28T21:59:11.404Z,84.12
2022-08-28T22:01:57.311Z,84.49
2022-08-28T22:04:43.028Z,84.91
2022-08-28T22:07:28.358Z,85.34
2022-08-28T22:10:13.976Z,85.51
2022-08-28T22:12:58.930Z,85.73
2022-08-28T22:15:46.042Z,85.42
2022-08-28T22:18:32.109Z,85.57
2022-08-28T22:21:41.724Z,85.49
2022-08-28T22:24:27.195Z,85.04
2022-08-28T22:27:13.504Z,85.17
2022-08-28T22:29:58.718Z,85.49
2022-08-28T22:32:45.278Z,85.57
2022-08-28T22:35:30.405Z,85.62
2022-08-28T22:38:15.701Z,86.17
2022-08-28T22:41:00.819Z,86.60
2022-08-28T22:43:48.179Z,86.66
2022-08-28T22:46:35.888Z,86.80
2022-08-28T22:49:21.072Z,87.01
2022-08-28T22:52:06.273Z,86.98
2022-08-28T22:54:53.147Z,87.09
2022-08-28T22:57:38.583Z,86.97
2022-08-28T23:00:26.509Z,86.77
2022-08-28T23:03:11.953Z,86.80
2022-08-28T23:05:58.275Z,87.23
2022-08-28T23:08:43.978Z,86.83
2022-08-28T23:11:29.045Z,86.54
2022-08-28T23:14:14.826Z,86.54
2022-08-28T23:17:00.014Z,86.66
2022-08-28T23:19:48.020Z,86.99
2022-08-28T23:22:34.165Z,87.15
2022-08-28T23:25:22.817Z,87.72
2022-08-28T23:28:08.009Z,87.62
2022-08-28T23:30:53.288Z,87.80
2022-08-28T23:33:38.704Z,88.02
2022-08-28T23:36:23.986Z,88.38
2022-08-28T23:39:09.557Z,88.37
2022-08-28T23:41:55.014Z,88.56
2022-08-28T23:44:40.189Z,88.70
2022-08-28T23:47:25.613Z,88.44
2022-08-28T23:50:18.071Z,88.71
2022-08-28T23:53:04.423Z,89.23
2022-08-28T23:55:50.052Z,89.47
2022-08-28T23:58:35.821Z,89.84
